sensor_id;sensor_type;location;lat;lon;timestamp;P1;durP1;ratioP1;P2;durP2;ratioP2
23394;SDS011;11870;53.084;18.206;2023-03-16T00:00:36;32.13;;;13.85;;
23394;SDS011;11870;53.084;18.206;2023-03-16T00:03:17;42.92;;;15.10;;
23394;SDS011;11870;53.084;18.206;2023-03-16T00:05:48;35.75;;;14.95;;
23394;SDS011;11870;53.084;18.206;2023-03-16T00:08:15;43.65;;;15.57;;
23394;SDS011;11870;53.084;18.206;2023-03-16T00:10:41;51.80;;;17.90;;
23394;SDS011;11870;53.084;18.206;2023-03-16T00:13:12;40.40;;;15.07;;
23394;SDS011;11870;53.084;18.206;2023-03-16T00:15:39;40.92;;;15.77;;
23394;SDS011;11870;53.084;18.206;2023-03-16T00:18:05;41.72;;;15.30;;
23394;SDS011;11870;53.084;18.206;2023-03-16T00:20:32;34.72;;;14.52;;
23394;SDS011;11870;53.084;18.206;2023-03-16T00:22:58;67.45;;;19.70;;
23394;SDS011;11870;53.084;18.206;2023-03-16T00:25:26;60.33;;;18.75;;
23394;SDS011;11870;53.084;18.206;2023-03-16T00:27:53;53.55;;;18.52;;
23394;SDS011;11870;53.084;18.206;2023-03-16T00:30:19;48.35;;;17.83;;
23394;SDS011;11870;53.084;18.206;2023-03-16T00:32:47;58.83;;;17.52;;
23394;SDS011;11870;53.084;18.206;2023-03-16T00:35:13;80.38;;;21.75;;
23394;SDS011;11870;53.084;18.206;2023-03-16T00:37:40;66.50;;;18.77;;
23394;SDS011;11870;53.084;18.206;2023-03-16T00:40:07;61.78;;;19.42;;
23394;SDS011;11870;53.084;18.206;2023-03-16T00:42:36;83.18;;;20.55;;
23394;SDS011;11870;53.084;18.206;2023-03-16T00:45:03;66.32;;;20.85;;
23394;SDS011;11870;53.084;18.206;2023-03-16T00:47:31;67.65;;;21.05;;
23394;SDS011;11870;53.084;18.206;2023-03-16T00:49:57;60.60;;;18.17;;
23394;SDS011;11870;53.084;18.206;2023-03-16T00:52:24;70.68;;;16.65;;
23394;SDS011;11870;53.084;18.206;2023-03-16T00:54:51;63.80;;;17.35;;
23394;SDS011;11870;53.084;18.206;2023-03-16T00:57:19;67.65;;;18.33;;
23394;SDS011;11870;53.084;18.206;2023-03-16T00:59:46;60.13;;;17.17;;
23394;SDS011;11870;53.084;18.206;2023-03-16T01:02:14;61.53;;;17.02;;
23394;SDS011;11870;53.084;18.206;2023-03-16T01:04:40;60.63;;;17.52;;
23394;SDS011;11870;53.084;18.206;2023-03-16T01:07:09;61.90;;;18.17;;
23394;SDS011;11870;53.084;18.206;2023-03-16T01:09:37;57.47;;;15.80;;
23394;SDS011;11870;53.084;18.206;2023-03-16T01:12:08;45.53;;;13.68;;
23394;SDS011;11870;53.084;18.206;2023-03-16T01:14:35;43.83;;;13.88;;
23394;SDS011;11870;53.084;18.206;2023-03-16T01:17:01;37.28;;;12.55;;
23394;SDS011;11870;53.084;18.206;2023-03-16T01:19:28;46.28;;;13.52;;
23394;SDS011;11870;53.084;18.206;2023-03-16T01:21:54;42.47;;;12.57;;
23394;SDS011;11870;53.084;18.206;2023-03-16T01:24:21;31.85;;;10.20;;
23394;SDS011;11870;53.084;18.206;2023-03-16T01:26:48;26.80;;;8.80;;
23394;SDS011;11870;53.084;18.206;2023-03-16T01:29:14;27.02;;;9.05;;
23394;SDS011;11870;53.084;18.206;2023-03-16T01:31:41;32.53;;;9.80;;
23394;SDS011;11870;53.084;18.206;2023-03-16T01:34:07;35.17;;;9.50;;
23394;SDS011;11870;53.084;18.206;2023-03-16T01:36:41;27.25;;;8.95;;
23394;SDS011;11870;53.084;18.206;2023-03-16T01:39:09;31.20;;;9.30;;
23394;SDS011;11870;53.084;18.206;2023-03-16T01:41:39;32.05;;;8.68;;
23394;SDS011;11870;53.084;18.206;2023-03-16T01:44:09;25.33;;;9.18;;
23394;SDS011;11870;53.084;18.206;2023-03-16T01:46:40;25.92;;;8.35;;
23394;SDS011;11870;53.084;18.206;2023-03-16T01:51:55;20.60;;;7.35;;
23394;SDS011;11870;53.084;18.206;2023-03-16T01:56:54;20.85;;;7.45;;
23394;SDS011;11870;53.084;18.206;2023-03-16T01:59:22;17.75;;;7.47;;
23394;SDS011;11870;53.084;18.206;2023-03-16T02:01:50;22.00;;;7.00;;
23394;SDS011;11870;53.084;18.206;2023-03-16T02:07:02;19.17;;;6.50;;
23394;SDS011;11870;53.084;18.206;2023-03-16T02:09:28;21.77;;;7.72;;
23394;SDS011;11870;53.084;18.206;2023-03-16T02:11:56;13.57;;;6.75;;
23394;SDS011;11870;53.084;18.206;2023-03-16T02:14:23;14.48;;;6.00;;
23394;SDS011;11870;53.084;18.206;2023-03-16T02:16:49;19.95;;;7.05;;
23394;SDS011;11870;53.084;18.206;2023-03-16T02:22:24;14.23;;;5.97;;
23394;SDS011;11870;53.084;18.206;2023-03-16T02:24:51;14.00;;;5.88;;
23394;SDS011;11870;53.084;18.206;2023-03-16T02:27:21;17.38;;;5.97;;
23394;SDS011;11870;53.084;18.206;2023-03-16T02:32:30;15.05;;;5.65;;
23394;SDS011;11870;53.084;18.206;2023-03-16T02:34:57;15.52;;;5.30;;
23394;SDS011;11870;53.084;18.206;2023-03-16T02:37:25;13.93;;;5.50;;
23394;SDS011;11870;53.084;18.206;2023-03-16T02:39:51;13.48;;;6.05;;
23394;SDS011;11870;53.084;18.206;2023-03-16T02:42:19;11.07;;;4.82;;
23394;SDS011;11870;53.084;18.206;2023-03-16T02:44:47;11.43;;;5.28;;
23394;SDS011;11870;53.084;18.206;2023-03-16T02:47:50;11.95;;;5.00;;
23394;SDS011;11870;53.084;18.206;2023-03-16T02:50:09;14.70;;;5.38;;
23394;SDS011;11870;53.084;18.206;2023-03-16T02:52:37;13.43;;;4.72;;
23394;SDS011;11870;53.084;18.206;2023-03-16T02:55:06;13.10;;;4.93;;
23394;SDS011;11870;53.084;18.206;2023-03-16T02:57:33;10.65;;;4.60;;
23394;SDS011;11870;53.084;18.206;2023-03-16T02:59:59;16.45;;;5.45;;
23394;SDS011;11870;53.084;18.206;2023-03-16T03:02:28;13.88;;;4.72;;
23394;SDS011;11870;53.084;18.206;2023-03-16T03:04:56;16.45;;;5.28;;
23394;SDS011;11870;53.084;18.206;2023-03-16T03:07:22;10.23;;;4.85;;
23394;SDS011;11870;53.084;18.206;2023-03-16T03:09:56;16.77;;;5.90;;
23394;SDS011;11870;53.084;18.206;2023-03-16T03:12:22;12.65;;;4.85;;
23394;SDS011;11870;53.084;18.206;2023-03-16T03:14:48;15.15;;;5.50;;
23394;SDS011;11870;53.084;18.206;2023-03-16T03:17:16;15.73;;;6.03;;
23394;SDS011;11870;53.084;18.206;2023-03-16T03:19:42;10.82;;;5.00;;
23394;SDS011;11870;53.084;18.206;2023-03-16T03:22:09;15.57;;;5.15;;
23394;SDS011;11870;53.084;18.206;2023-03-16T03:24:35;13.55;;;5.57;;
23394;SDS011;11870;53.084;18.206;2023-03-16T03:27:02;14.00;;;5.10;;
23394;SDS011;11870;53.084;18.206;2023-03-16T03:29:30;16.02;;;5.18;;
23394;SDS011;11870;53.084;18.206;2023-03-16T03:32:02;13.48;;;5.40;;
23394;SDS011;11870;53.084;18.206;2023-03-16T03:34:29;14.52;;;5.97;;
23394;SDS011;11870;53.084;18.206;2023-03-16T03:36:56;15.25;;;5.28;;
23394;SDS011;11870;53.084;18.206;2023-03-16T03:39:23;12.15;;;4.65;;
23394;SDS011;11870;53.084;18.206;2023-03-16T03:41:49;15.90;;;5.13;;
23394;SDS011;11870;53.084;18.206;2023-03-16T03:44:20;11.50;;;4.65;;
23394;SDS011;11870;53.084;18.206;2023-03-16T03:46:46;14.35;;;4.97;;
23394;SDS011;11870;53.084;18.206;2023-03-16T03:49:13;11.27;;;4.95;;
23394;SDS011;11870;53.084;18.206;2023-03-16T03:51:39;9.82;;;4.78;;
23394;SDS011;11870;53.084;18.206;2023-03-16T03:54:06;14.00;;;6.03;;
23394;SDS011;11870;53.084;18.206;2023-03-16T03:56:32;14.23;;;5.65;;
23394;SDS011;11870;53.084;18.206;2023-03-16T03:58:59;13.30;;;5.63;;
23394;SDS011;11870;53.084;18.206;2023-03-16T04:01:25;15.07;;;6.15;;
23394;SDS011;11870;53.084;18.206;2023-03-16T04:03:51;12.63;;;5.28;;
23394;SDS011;11870;53.084;18.206;2023-03-16T04:06:18;13.73;;;5.03;;
23394;SDS011;11870;53.084;18.206;2023-03-16T04:08:44;12.65;;;5.18;;
23394;SDS011;11870;53.084;18.206;2023-03-16T04:11:11;11.73;;;4.70;;
23394;SDS011;11870;53.084;18.206;2023-03-16T04:13:37;16.00;;;5.03;;
23394;SDS011;11870;53.084;18.206;2023-03-16T04:16:04;11.30;;;5.50;;
23394;SDS011;11870;53.084;18.206;2023-03-16T04:18:30;10.23;;;5.32;;
23394;SDS011;11870;53.084;18.206;2023-03-16T04:21:04;12.75;;;5.53;;
23394;SDS011;11870;53.084;18.206;2023-03-16T04:23:31;18.00;;;5.82;;
23394;SDS011;11870;53.084;18.206;2023-03-16T04:26:00;13.60;;;5.07;;
23394;SDS011;11870;53.084;18.206;2023-03-16T04:28:28;12.70;;;5.40;;
23394;SDS011;11870;53.084;18.206;2023-03-16T04:30:54;13.43;;;5.15;;
23394;SDS011;11870;53.084;18.206;2023-03-16T04:33:20;11.20;;;5.18;;
23394;SDS011;11870;53.084;18.206;2023-03-16T04:35:47;11.90;;;4.50;;
23394;SDS011;11870;53.084;18.206;2023-03-16T04:38:14;16.98;;;6.00;;
23394;SDS011;11870;53.084;18.206;2023-03-16T04:40:40;13.15;;;5.45;;
23394;SDS011;11870;53.084;18.206;2023-03-16T04:43:06;12.35;;;5.20;;
23394;SDS011;11870;53.084;18.206;2023-03-16T04:45:33;11.25;;;4.95;;
23394;SDS011;11870;53.084;18.206;2023-03-16T04:47:59;13.85;;;4.88;;
23394;SDS011;11870;53.084;18.206;2023-03-16T04:50:26;13.95;;;4.72;;
23394;SDS011;11870;53.084;18.206;2023-03-16T04:52:52;12.27;;;4.90;;
23394;SDS011;11870;53.084;18.206;2023-03-16T04:55:19;12.40;;;4.70;;
23394;SDS011;11870;53.084;18.206;2023-03-16T04:57:47;14.27;;;4.63;;
23394;SDS011;11870;53.084;18.206;2023-03-16T05:00:13;15.63;;;5.88;;
23394;SDS011;11870;53.084;18.206;2023-03-16T05:02:44;18.55;;;6.30;;
23394;SDS011;11870;53.084;18.206;2023-03-16T05:05:12;14.35;;;5.13;;
23394;SDS011;11870;53.084;18.206;2023-03-16T05:07:39;15.05;;;5.80;;
23394;SDS011;11870;53.084;18.206;2023-03-16T05:10:07;12.52;;;5.53;;
23394;SDS011;11870;53.084;18.206;2023-03-16T05:12:33;12.68;;;4.53;;
23394;SDS011;11870;53.084;18.206;2023-03-16T05:15:00;15.98;;;5.63;;
23394;SDS011;11870;53.084;18.206;2023-03-16T05:17:26;14.77;;;6.07;;
23394;SDS011;11870;53.084;18.206;2023-03-16T05:19:53;12.82;;;5.57;;
23394;SDS011;11870;53.084;18.206;2023-03-16T05:22:19;16.80;;;5.32;;
23394;SDS011;11870;53.084;18.206;2023-03-16T05:24:45;10.75;;;5.07;;
23394;SDS011;11870;53.084;18.206;2023-03-16T05:27:12;12.95;;;5.07;;
23394;SDS011;11870;53.084;18.206;2023-03-16T05:29:38;17.92;;;5.90;;
23394;SDS011;11870;53.084;18.206;2023-03-16T05:32:05;16.20;;;5.25;;
23394;SDS011;11870;53.084;18.206;2023-03-16T05:34:32;14.77;;;5.63;;
23394;SDS011;11870;53.084;18.206;2023-03-16T05:36:59;10.70;;;5.40;;
23394;SDS011;11870;53.084;18.206;2023-03-16T05:39:26;18.63;;;6.47;;
23394;SDS011;11870;53.084;18.206;2023-03-16T05:41:52;17.00;;;6.30;;
23394;SDS011;11870;53.084;18.206;2023-03-16T05:44:19;13.95;;;5.95;;
23394;SDS011;11870;53.084;18.206;2023-03-16T05:46:46;15.98;;;6.53;;
23394;SDS011;11870;53.084;18.206;2023-03-16T05:49:12;35.60;;;7.70;;
23394;SDS011;11870;53.084;18.206;2023-03-16T05:51:39;148.27;;;14.85;;
23394;SDS011;11870;53.084;18.206;2023-03-16T05:54:06;113.05;;;12.27;;
23394;SDS011;11870;53.084;18.206;2023-03-16T05:56:32;19.42;;;7.68;;
23394;SDS011;11870;53.084;18.206;2023-03-16T05:58:59;54.30;;;10.02;;
23394;SDS011;11870;53.084;18.206;2023-03-16T06:01:26;86.75;;;12.60;;
23394;SDS011;11870;53.084;18.206;2023-03-16T06:03:53;119.60;;;13.75;;
23394;SDS011;11870;53.084;18.206;2023-03-16T06:06:20;21.13;;;8.63;;
23394;SDS011;11870;53.084;18.206;2023-03-16T06:08:47;25.65;;;9.63;;
23394;SDS011;11870;53.084;18.206;2023-03-16T06:11:13;22.38;;;10.40;;
23394;SDS011;11870;53.084;18.206;2023-03-16T06:13:40;28.83;;;10.88;;
23394;SDS011;11870;53.084;18.206;2023-03-16T06:16:06;29.70;;;11.52;;
23394;SDS011;11870;53.084;18.206;2023-03-16T06:18:33;22.42;;;10.95;;
23394;SDS011;11870;53.084;18.206;2023-03-16T06:20:59;23.67;;;10.10;;
23394;SDS011;11870;53.084;18.206;2023-03-16T06:23:26;18.70;;;8.75;;
23394;SDS011;11870;53.084;18.206;2023-03-16T06:25:52;23.23;;;5.97;;
23394;SDS011;11870;53.084;18.206;2023-03-16T06:28:24;11.43;;;5.28;;
23394;SDS011;11870;53.084;18.206;2023-03-16T06:30:54;8.75;;;4.13;;
23394;SDS011;11870;53.084;18.206;2023-03-16T06:33:21;12.00;;;4.20;;
23394;SDS011;11870;53.084;18.206;2023-03-16T06:35:47;12.05;;;4.40;;
23394;SDS011;11870;53.084;18.206;2023-03-16T06:38:14;11.35;;;4.38;;
23394;SDS011;11870;53.084;18.206;2023-03-16T06:40:40;8.70;;;4.00;;
23394;SDS011;11870;53.084;18.206;2023-03-16T06:43:07;10.70;;;4.10;;
23394;SDS011;11870;53.084;18.206;2023-03-16T06:45:33;11.15;;;4.40;;
23394;SDS011;11870;53.084;18.206;2023-03-16T06:48:00;7.85;;;4.00;;
23394;SDS011;11870;53.084;18.206;2023-03-16T06:50:26;7.22;;;3.72;;
23394;SDS011;11870;53.084;18.206;2023-03-16T06:52:53;9.65;;;3.85;;
23394;SDS011;11870;53.084;18.206;2023-03-16T06:55:19;6.60;;;3.55;;
23394;SDS011;11870;53.084;18.206;2023-03-16T06:57:46;7.65;;;3.65;;
23394;SDS011;11870;53.084;18.206;2023-03-16T07:00:12;9.82;;;3.97;;
23394;SDS011;11870;53.084;18.206;2023-03-16T07:02:40;7.70;;;3.28;;
23394;SDS011;11870;53.084;18.206;2023-03-16T07:05:08;7.38;;;3.83;;
23394;SDS011;11870;53.084;18.206;2023-03-16T07:07:41;8.82;;;3.70;;
23394;SDS011;11870;53.084;18.206;2023-03-16T07:10:11;8.60;;;3.75;;
23394;SDS011;11870;53.084;18.206;2023-03-16T07:12:39;5.72;;;3.30;;
23394;SDS011;11870;53.084;18.206;2023-03-16T07:15:06;6.80;;;3.63;;
23394;SDS011;11870;53.084;18.206;2023-03-16T07:17:32;7.68;;;3.38;;
23394;SDS011;11870;53.084;18.206;2023-03-16T07:19:59;8.40;;;3.20;;
23394;SDS011;11870;53.084;18.206;2023-03-16T07:22:30;6.65;;;3.30;;
23394;SDS011;11870;53.084;18.206;2023-03-16T07:24:57;7.25;;;3.40;;
23394;SDS011;11870;53.084;18.206;2023-03-16T07:27:23;6.50;;;3.60;;
23394;SDS011;11870;53.084;18.206;2023-03-16T07:29:49;8.32;;;3.30;;
23394;SDS011;11870;53.084;18.206;2023-03-16T07:32:17;5.57;;;3.00;;
23394;SDS011;11870;53.084;18.206;2023-03-16T07:34:43;5.90;;;3.35;;
23394;SDS011;11870;53.084;18.206;2023-03-16T07:37:10;8.30;;;3.20;;
23394;SDS011;11870;53.084;18.206;2023-03-16T07:39:36;12.20;;;5.43;;
23394;SDS011;11870;53.084;18.206;2023-03-16T07:42:03;7.90;;;3.63;;
23394;SDS011;11870;53.084;18.206;2023-03-16T07:44:29;11.05;;;3.92;;
23394;SDS011;11870;53.084;18.206;2023-03-16T07:46:56;10.88;;;3.10;;
23394;SDS011;11870;53.084;18.206;2023-03-16T07:49:22;5.90;;;2.70;;
23394;SDS011;11870;53.084;18.206;2023-03-16T07:51:48;7.75;;;3.60;;
23394;SDS011;11870;53.084;18.206;2023-03-16T07:54:15;10.80;;;3.67;;
23394;SDS011;11870;53.084;18.206;2023-03-16T07:56:42;8.55;;;3.70;;
23394;SDS011;11870;53.084;18.206;2023-03-16T07:59:08;7.97;;;2.95;;
23394;SDS011;11870;53.084;18.206;2023-03-16T08:01:34;10.10;;;3.15;;
23394;SDS011;11870;53.084;18.206;2023-03-16T08:04:01;6.85;;;3.15;;
23394;SDS011;11870;53.084;18.206;2023-03-16T08:06:27;6.95;;;3.50;;
23394;SDS011;11870;53.084;18.206;2023-03-16T08:08:53;7.25;;;3.35;;
23394;SDS011;11870;53.084;18.206;2023-03-16T08:11:20;6.00;;;3.13;;
23394;SDS011;11870;53.084;18.206;2023-03-16T08:13:50;9.38;;;3.25;;
23394;SDS011;11870;53.084;18.206;2023-03-16T08:16:21;10.43;;;3.00;;
23394;SDS011;11870;53.084;18.206;2023-03-16T08:18:47;6.07;;;2.60;;
23394;SDS011;11870;53.084;18.206;2023-03-16T08:21:15;8.30;;;3.13;;
23394;SDS011;11870;53.084;18.206;2023-03-16T08:23:41;8.27;;;2.67;;
23394;SDS011;11870;53.084;18.206;2023-03-16T08:26:14;7.18;;;2.80;;
23394;SDS011;11870;53.084;18.206;2023-03-16T08:28:44;7.95;;;2.42;;
23394;SDS011;11870;53.084;18.206;2023-03-16T08:31:12;7.47;;;3.08;;
23394;SDS011;11870;53.084;18.206;2023-03-16T08:33:39;6.75;;;2.95;;
23394;SDS011;11870;53.084;18.206;2023-03-16T08:36:07;11.02;;;2.80;;
23394;SDS011;11870;53.084;18.206;2023-03-16T08:38:36;9.27;;;3.40;;
23394;SDS011;11870;53.084;18.206;2023-03-16T08:41:04;9.18;;;3.60;;
23394;SDS011;11870;53.084;18.206;2023-03-16T08:43:31;12.63;;;2.92;;
23394;SDS011;11870;53.084;18.206;2023-03-16T08:45:58;6.95;;;3.00;;
23394;SDS011;11870;53.084;18.206;2023-03-16T08:48:26;6.18;;;2.55;;
23394;SDS011;11870;53.084;18.206;2023-03-16T08:50:53;6.15;;;2.95;;
23394;SDS011;11870;53.084;18.206;2023-03-16T08:53:19;8.25;;;3.03;;
23394;SDS011;11870;53.084;18.206;2023-03-16T08:55:46;10.13;;;2.95;;
23394;SDS011;11870;53.084;18.206;2023-03-16T08:58:12;9.90;;;3.20;;
23394;SDS011;11870;53.084;18.206;2023-03-16T09:00:39;7.10;;;3.33;;
23394;SDS011;11870;53.084;18.206;2023-03-16T09:03:06;7.22;;;3.13;;
23394;SDS011;11870;53.084;18.206;2023-03-16T09:05:34;7.38;;;3.05;;
23394;SDS011;11870;53.084;18.206;2023-03-16T09:08:01;5.75;;;2.90;;
23394;SDS011;11870;53.084;18.206;2023-03-16T09:10:29;8.07;;;3.10;;
23394;SDS011;11870;53.084;18.206;2023-03-16T09:12:56;6.68;;;2.58;;
23394;SDS011;11870;53.084;18.206;2023-03-16T09:15:23;7.18;;;2.63;;
23394;SDS011;11870;53.084;18.206;2023-03-16T09:17:49;6.13;;;2.70;;
23394;SDS011;11870;53.084;18.206;2023-03-16T09:20:16;7.80;;;2.70;;
23394;SDS011;11870;53.084;18.206;2023-03-16T09:22:43;8.30;;;3.10;;
23394;SDS011;11870;53.084;18.206;2023-03-16T09:25:10;12.07;;;3.38;;
23394;SDS011;11870;53.084;18.206;2023-03-16T09:27:36;4.78;;;2.45;;
23394;SDS011;11870;53.084;18.206;2023-03-16T09:30:03;5.97;;;2.50;;
23394;SDS011;11870;53.084;18.206;2023-03-16T09:32:30;7.47;;;2.00;;
23394;SDS011;11870;53.084;18.206;2023-03-16T09:34:58;6.47;;;1.90;;
23394;SDS011;11870;53.084;18.206;2023-03-16T09:37:24;10.55;;;2.33;;
23394;SDS011;11870;53.084;18.206;2023-03-16T09:39:51;4.43;;;1.90;;
23394;SDS011;11870;53.084;18.206;2023-03-16T09:42:29;4.65;;;1.75;;
23394;SDS011;11870;53.084;18.206;2023-03-16T09:47:28;5.70;;;2.00;;
23394;SDS011;11870;53.084;18.206;2023-03-16T09:49:59;4.15;;;2.10;;
23394;SDS011;11870;53.084;18.206;2023-03-16T09:52:37;6.25;;;2.03;;
23394;SDS011;11870;53.084;18.206;2023-03-16T09:57:33;3.85;;;1.80;;
23394;SDS011;11870;53.084;18.206;2023-03-16T10:00:09;6.65;;;2.10;;
23394;SDS011;11870;53.084;18.206;2023-03-16T10:05:53;8.27;;;1.83;;
23394;SDS011;11870;53.084;18.206;2023-03-16T10:08:24;3.97;;;1.90;;
23394;SDS011;11870;53.084;18.206;2023-03-16T10:16:47;8.65;;;3.97;;
23394;SDS011;11870;53.084;18.206;2023-03-16T10:19:20;7.65;;;3.15;;
23394;SDS011;11870;53.084;18.206;2023-03-16T10:22:14;8.63;;;2.70;;
23394;SDS011;11870;53.084;18.206;2023-03-16T10:27:19;4.28;;;1.90;;
23394;SDS011;11870;53.084;18.206;2023-03-16T10:29:52;7.28;;;1.98;;
23394;SDS011;11870;53.084;18.206;2023-03-16T10:32:19;6.55;;;1.80;;
23394;SDS011;11870;53.084;18.206;2023-03-16T10:34:47;7.90;;;1.92;;
23394;SDS011;11870;53.084;18.206;2023-03-16T10:37:19;4.88;;;2.20;;
23394;SDS011;11870;53.084;18.206;2023-03-16T10:39:46;4.43;;;2.10;;
23394;SDS011;11870;53.084;18.206;2023-03-16T10:42:17;5.78;;;2.22;;
23394;SDS011;11870;53.084;18.206;2023-03-16T10:44:45;4.53;;;2.42;;
23394;SDS011;11870;53.084;18.206;2023-03-16T10:47:16;4.97;;;2.20;;
23394;SDS011;11870;53.084;18.206;2023-03-16T10:49:46;3.67;;;2.30;;
23394;SDS011;11870;53.084;18.206;2023-03-16T10:52:24;4.07;;;2.22;;
23394;SDS011;11870;53.084;18.206;2023-03-16T10:55:23;4.70;;;2.17;;
23394;SDS011;11870;53.084;18.206;2023-03-16T10:57:54;3.88;;;2.35;;
23394;SDS011;11870;53.084;18.206;2023-03-16T11:02:48;2.78;;;1.80;;
23394;SDS011;11870;53.084;18.206;2023-03-16T11:07:49;3.63;;;1.70;;
23394;SDS011;11870;53.084;18.206;2023-03-16T11:10:37;4.20;;;1.90;;
23394;SDS011;11870;53.084;18.206;2023-03-16T11:13:09;2.75;;;1.80;;
23394;SDS011;11870;53.084;18.206;2023-03-16T11:16:22;3.03;;;1.77;;
23394;SDS011;11870;53.084;18.206;2023-03-16T11:18:31;4.25;;;2.10;;
23394;SDS011;11870;53.084;18.206;2023-03-16T11:21:03;4.07;;;1.90;;
23394;SDS011;11870;53.084;18.206;2023-03-16T11:23:58;6.32;;;1.90;;
23394;SDS011;11870;53.084;18.206;2023-03-16T11:26:26;3.15;;;1.80;;
23394;SDS011;11870;53.084;18.206;2023-03-16T11:29:01;3.60;;;1.80;;
23394;SDS011;11870;53.084;18.206;2023-03-16T11:31:50;3.25;;;2.15;;
23394;SDS011;11870;53.084;18.206;2023-03-16T11:34:26;5.18;;;2.03;;
23394;SDS011;11870;53.084;18.206;2023-03-16T11:36:54;3.63;;;2.53;;
23394;SDS011;11870;53.084;18.206;2023-03-16T11:47:58;3.95;;;1.42;;
23394;SDS011;11870;53.084;18.206;2023-03-16T11:50:36;5.53;;;1.88;;
23394;SDS011;11870;53.084;18.206;2023-03-16T12:01:10;4.40;;;1.67;;
23394;SDS011;11870;53.084;18.206;2023-03-16T12:11:36;20.15;;;7.78;;
23394;SDS011;11870;53.084;18.206;2023-03-16T12:14:31;8.05;;;4.00;;
23394;SDS011;11870;53.084;18.206;2023-03-16T12:17:08;55.40;;;15.63;;
23394;SDS011;11870;53.084;18.206;2023-03-16T12:22:20;6.40;;;2.47;;
23394;SDS011;11870;53.084;18.206;2023-03-16T12:25:14;9.60;;;4.68;;
23394;SDS011;11870;53.084;18.206;2023-03-16T12:27:45;2.25;;;1.60;;
23394;SDS011;11870;53.084;18.206;2023-03-16T12:33:00;2.92;;;1.73;;
23394;SDS011;11870;53.084;18.206;2023-03-16T12:39:03;5.50;;;2.10;;
23394;SDS011;11870;53.084;18.206;2023-03-16T12:44:14;2.65;;;1.40;;
23394;SDS011;11870;53.084;18.206;2023-03-16T12:47:05;3.45;;;1.45;;
23394;SDS011;11870;53.084;18.206;2023-03-16T12:49:35;2.55;;;1.52;;
23394;SDS011;11870;53.084;18.206;2023-03-16T12:52:04;2.05;;;1.55;;
23394;SDS011;11870;53.084;18.206;2023-03-16T12:54:32;3.35;;;1.60;;
23394;SDS011;11870;53.084;18.206;2023-03-16T12:57:05;4.78;;;1.90;;
23394;SDS011;11870;53.084;18.206;2023-03-16T12:59:40;4.97;;;2.10;;
23394;SDS011;11870;53.084;18.206;2023-03-16T13:02:14;4.03;;;2.03;;
23394;SDS011;11870;53.084;18.206;2023-03-16T13:04:43;5.13;;;2.35;;
23394;SDS011;11870;53.084;18.206;2023-03-16T13:07:17;5.10;;;1.75;;
23394;SDS011;11870;53.084;18.206;2023-03-16T13:09:49;2.55;;;1.50;;
23394;SDS011;11870;53.084;18.206;2023-03-16T13:12:22;2.80;;;1.40;;
23394;SDS011;11870;53.084;18.206;2023-03-16T13:14:48;3.72;;;1.40;;
23394;SDS011;11870;53.084;18.206;2023-03-16T13:22:25;3.45;;;1.50;;
23394;SDS011;11870;53.084;18.206;2023-03-16T13:24:53;2.50;;;1.42;;
23394;SDS011;11870;53.084;18.206;2023-03-16T13:27:27;3.03;;;1.42;;
23394;SDS011;11870;53.084;18.206;2023-03-16T13:29:59;3.72;;;1.60;;
23394;SDS011;11870;53.084;18.206;2023-03-16T13:32:30;3.63;;;1.40;;
23394;SDS011;11870;53.084;18.206;2023-03-16T13:34:58;3.92;;;1.80;;
23394;SDS011;11870;53.084;18.206;2023-03-16T13:37:26;3.00;;;1.50;;
23394;SDS011;11870;53.084;18.206;2023-03-16T13:39:57;3.83;;;1.60;;
23394;SDS011;11870;53.084;18.206;2023-03-16T13:42:25;4.97;;;1.60;;
23394;SDS011;11870;53.084;18.206;2023-03-16T13:44:56;4.38;;;1.50;;
23394;SDS011;11870;53.084;18.206;2023-03-16T13:47:23;5.05;;;1.50;;
23394;SDS011;11870;53.084;18.206;2023-03-16T13:49:55;4.63;;;1.63;;
23394;SDS011;11870;53.084;18.206;2023-03-16T13:54:50;2.72;;;1.30;;
23394;SDS011;11870;53.084;18.206;2023-03-16T13:57:20;4.00;;;1.60;;
23394;SDS011;11870;53.084;18.206;2023-03-16T13:59:48;3.50;;;1.58;;
23394;SDS011;11870;53.084;18.206;2023-03-16T14:02:18;2.10;;;1.40;;
23394;SDS011;11870;53.084;18.206;2023-03-16T14:04:45;4.10;;;1.20;;
23394;SDS011;11870;53.084;18.206;2023-03-16T14:07:13;4.10;;;1.58;;
23394;SDS011;11870;53.084;18.206;2023-03-16T14:09:41;2.22;;;1.38;;
23394;SDS011;11870;53.084;18.206;2023-03-16T14:12:11;4.43;;;2.03;;
23394;SDS011;11870;53.084;18.206;2023-03-16T14:14:39;3.78;;;1.60;;
23394;SDS011;11870;53.084;18.206;2023-03-16T14:17:13;3.83;;;1.50;;
23394;SDS011;11870;53.084;18.206;2023-03-16T14:19:41;6.20;;;1.80;;
23394;SDS011;11870;53.084;18.206;2023-03-16T14:22:18;2.53;;;1.50;;
23394;SDS011;11870;53.084;18.206;2023-03-16T14:24:50;3.20;;;1.30;;
23394;SDS011;11870;53.084;18.206;2023-03-16T14:27:19;2.38;;;1.00;;
23394;SDS011;11870;53.084;18.206;2023-03-16T14:29:50;3.45;;;1.45;;
23394;SDS011;11870;53.084;18.206;2023-03-16T14:32:21;2.45;;;1.05;;
23394;SDS011;11870;53.084;18.206;2023-03-16T14:34:51;1.77;;;1.23;;
23394;SDS011;11870;53.084;18.206;2023-03-16T14:37:17;3.10;;;1.15;;
23394;SDS011;11870;53.084;18.206;2023-03-16T14:39:45;3.95;;;1.50;;
23394;SDS011;11870;53.084;18.206;2023-03-16T14:42:17;2.30;;;1.10;;
23394;SDS011;11870;53.084;18.206;2023-03-16T14:44:46;4.00;;;1.23;;
23394;SDS011;11870;53.084;18.206;2023-03-16T14:47:19;2.08;;;1.20;;
23394;SDS011;11870;53.084;18.206;2023-03-16T14:49:47;3.70;;;1.70;;
23394;SDS011;11870;53.084;18.206;2023-03-16T14:52:16;4.13;;;1.60;;
23394;SDS011;11870;53.084;18.206;2023-03-16T14:54:46;1.83;;;1.10;;
23394;SDS011;11870;53.084;18.206;2023-03-16T14:57:15;2.35;;;1.10;;
23394;SDS011;11870;53.084;18.206;2023-03-16T14:59:42;2.50;;;0.98;;
23394;SDS011;11870;53.084;18.206;2023-03-16T15:02:12;2.17;;;0.90;;
23394;SDS011;11870;53.084;18.206;2023-03-16T15:04:41;4.30;;;1.00;;
23394;SDS011;11870;53.084;18.206;2023-03-16T15:07:21;2.53;;;1.27;;
23394;SDS011;11870;53.084;18.206;2023-03-16T15:09:49;2.05;;;1.08;;
23394;SDS011;11870;53.084;18.206;2023-03-16T15:12:17;2.47;;;1.20;;
23394;SDS011;11870;53.084;18.206;2023-03-16T15:14:44;5.75;;;3.35;;
23394;SDS011;11870;53.084;18.206;2023-03-16T15:17:29;3.05;;;1.45;;
23394;SDS011;11870;53.084;18.206;2023-03-16T15:19:57;8.00;;;3.13;;
23394;SDS011;11870;53.084;18.206;2023-03-16T15:22:25;3.53;;;1.50;;
23394;SDS011;11870;53.084;18.206;2023-03-16T15:24:57;2.92;;;1.30;;
23394;SDS011;11870;53.084;18.206;2023-03-16T15:27:29;16.08;;;7.07;;
23394;SDS011;11870;53.084;18.206;2023-03-16T15:30:00;3.88;;;1.80;;
23394;SDS011;11870;53.084;18.206;2023-03-16T15:32:26;1.50;;;1.15;;
23394;SDS011;11870;53.084;18.206;2023-03-16T15:34:53;3.40;;;1.40;;
23394;SDS011;11870;53.084;18.206;2023-03-16T15:37:19;2.90;;;1.00;;
23394;SDS011;11870;53.084;18.206;2023-03-16T15:39:48;1.50;;;0.90;;
23394;SDS011;11870;53.084;18.206;2023-03-16T15:42:15;1.17;;;1.00;;
23394;SDS011;11870;53.084;18.206;2023-03-16T15:44:43;4.43;;;1.35;;
23394;SDS011;11870;53.084;18.206;2023-03-16T15:47:09;2.78;;;1.30;;
23394;SDS011;11870;53.084;18.206;2023-03-16T15:49:36;2.33;;;1.17;;
23394;SDS011;11870;53.084;18.206;2023-03-16T15:52:03;4.15;;;1.05;;
23394;SDS011;11870;53.084;18.206;2023-03-16T15:54:32;3.90;;;1.42;;